Time;durP1;ratioP1;P1;durP2;ratioP2;P2;SDS_P1;SDS_P2;PMS_P1;PMS_P2;Temp;Humidity;BMP_temperature;BMP_pressure;BME280_temperature;BME280_humidity;BME280_pressure;Samples;Min_cycle;Max_cycle;Signal;HPM_P1;HPM_P2
2023/12/26 00:00:55;;;;;;;0.00;0.00;;;;;;;;;;5066954;28;20110;-91
2023/12/26 00:03:21;;;;;;;0.00;0.00;;;;;;;;;;5071094;28;20467;-91
2023/12/26 00:05:47;;;;;;;0.00;0.00;;;;;;;;;;5070927;28;20043;-92
2023/12/26 00:08:13;;;;;;;0.00;0.00;;;;;;;;;;5072583;28;20033;-91
2023/12/26 00:10:39;;;;;;;0.00;0.00;;;;;;;;;;5073936;28;20025;-91
2023/12/26 00:13:05;;;;;;;0.00;0.00;;;;;;;;;;5073250;28;20034;-91
2023/12/26 00:15:31;;;;;;;0.00;0.00;;;;;;;;;;5073932;28;20943;-91
2023/12/26 00:17:57;;;;;;;0.00;0.00;;;;;;;;;;5075295;28;20181;-91
2023/12/26 00:20:23;;;;;;;0.00;0.00;;;;;;;;;;5074651;28;20115;-91
2023/12/26 00:22:49;;;;;;;0.03;0.03;;;;;;;;;;5075587;28;20097;-91
2023/12/26 00:25:15;;;;;;;0.00;0.00;;;;;;;;;;5062594;28;20024;-93
2023/12/26 00:27:42;;;;;;;0.00;0.00;;;;;;;;;;5072808;28;20024;-91
2023/12/26 00:30:08;;;;;;;0.00;0.00;;;;;;;;;;5070291;28;20131;-91
2023/12/26 00:32:34;;;;;;;0.00;0.00;;;;;;;;;;5074762;28;20492;-93
2023/12/26 00:35:00;;;;;;;0.00;0.00;;;;;;;;;;5071278;28;20119;-92
2023/12/26 00:37:27;;;;;;;0.00;0.00;;;;;;;;;;5074491;28;20064;-92
2023/12/26 00:39:53;;;;;;;0.00;0.00;;;;;;;;;;5070968;28;20033;-93
2023/12/26 00:42:19;;;;;;;0.00;0.00;;;;;;;;;;5072273;28;20029;-91
2023/12/26 00:44:45;;;;;;;0.00;0.00;;;;;;;;;;5073724;28;20115;-92
2023/12/26 00:47:11;;;;;;;0.00;0.00;;;;;;;;;;5072141;28;20056;-92
2023/12/26 00:49:37;;;;;;;0.00;0.00;;;;;;;;;;5072004;28;20028;-92
2023/12/26 00:52:03;;;;;;;0.00;0.00;;;;;;;;;;5073902;28;20036;-91
2023/12/26 00:54:29;;;;;;;0.00;0.00;;;;;;;;;;5072423;28;20143;-91
2023/12/26 00:56:55;;;;;;;0.00;0.00;;;;;;;;;;5068950;28;20522;-92
2023/12/26 00:59:21;;;;;;;0.00;0.00;;;;;;;;;;5074511;28;20036;-92
2023/12/26 01:01:47;;;;;;;0.00;0.00;;;;;;;;;;5073626;28;20060;-92
2023/12/26 01:04:13;;;;;;;0.00;0.00;;;;;;;;;;5068978;28;20031;-92
2023/12/26 01:06:39;;;;;;;0.00;0.00;;;;;;;;;;5070662;28;20556;-91
2023/12/26 01:09:06;;;;;;;0.00;0.00;;;;;;;;;;5068736;28;20045;-90
2023/12/26 01:11:32;;;;;;;0.00;0.00;;;;;;;;;;5067806;28;20120;-91
2023/12/26 01:13:58;;;;;;;0.00;0.00;;;;;;;;;;5069761;28;20330;-91
2023/12/26 01:16:27;;;;;;;0.00;0.00;;;;;;;;;;5072905;28;20030;-92
2023/12/26 01:18:53;;;;;;;0.00;0.00;;;;;;;;;;5069588;28;20037;-92
2023/12/26 01:21:19;;;;;;;0.00;0.00;;;;;;;;;;5071497;28;20064;-91
2023/12/26 01:23:45;;;;;;;0.00;0.00;;;;;;;;;;5070433;28;20040;-92
2023/12/26 01:26:11;;;;;;;0.00;0.00;;;;;;;;;;5071158;28;20025;-91
2023/12/26 01:28:37;;;;;;;0.00;0.00;;;;;;;;;;5070067;28;20037;-91
2023/12/26 01:31:03;;;;;;;0.00;0.00;;;;;;;;;;5067913;28;20036;-91
2023/12/26 01:33:29;;;;;;;0.00;0.00;;;;;;;;;;5071118;28;20469;-91
2023/12/26 01:35:55;;;;;;;0.00;0.00;;;;;;;;;;5070448;28;20036;-91
2023/12/26 01:38:21;;;;;;;0.00;0.00;;;;;;;;;;5072009;28;20029;-92
2023/12/26 01:40:47;;;;;;;0.00;0.00;;;;;;;;;;5067374;28;20060;-92
2023/12/26 01:43:13;;;;;;;0.00;0.00;;;;;;;;;;5064527;28;20028;-91
2023/12/26 01:45:39;;;;;;;0.00;0.00;;;;;;;;;;5070942;28;20390;-92
2023/12/26 01:48:06;;;;;;;0.00;0.00;;;11.10;99.90;;;;;;5065972;28;20067;-91
2023/12/26 01:50:33;;;;;;;0.00;0.00;;;11.10;99.90;;;;;;5073534;28;20037;-92
2023/12/26 01:52:59;;;;;;;0.00;0.00;;;;;;;;;;5067350;28;20037;-93
2023/12/26 01:55:25;;;;;;;0.00;0.00;;;;;;;;;;5069270;28;20032;-92
2023/12/26 01:57:54;;;;;;;0.00;0.00;;;10.90;99.90;;;;;;5073269;28;20122;-92
2023/12/26 02:00:20;;;;;;;0.00;0.00;;;;;;;;;;5071979;28;20397;-92
2023/12/26 02:02:46;;;;;;;0.00;0.00;;;;;;;;;;5065618;28;20078;-92
2023/12/26 02:05:14;;;;;;;0.00;0.00;;;10.90;99.90;;;;;;5071421;28;20078;-92
2023/12/26 02:07:40;;;;;;;0.00;0.00;;;;;;;;;;5071176;28;20090;-92
2023/12/26 02:10:06;;;;;;;0.00;0.00;;;;;;;;;;5062680;28;20111;-91
2023/12/26 02:12:33;;;;;;;0.00;0.00;;;;;;;;;;5068003;28;20556;-91
2023/12/26 02:14:59;;;;;;;0.00;0.00;;;;;;;;;;5069262;28;20032;-93
2023/12/26 02:17:25;;;;;;;0.00;0.00;;;10.90;99.90;;;;;;5069544;28;20056;-91
2023/12/26 02:19:52;;;;;;;0.00;0.00;;;;;;;;;;5070071;28;20086;-91
2023/12/26 02:22:18;;;;;;;0.00;0.00;;;;;;;;;;5065609;28;20021;-91
2023/12/26 02:24:44;;;;;;;0.00;0.00;;;;;;;;;;5067071;28;20036;-92
2023/12/26 02:27:24;;;;;;;0.00;0.00;;;10.90;99.90;;;;;;5070905;28;20029;-93
2023/12/26 02:29:50;;;;;;;;;;;10.80;99.90;;;;;;5069413;28;20147;-91
2023/12/26 02:32:24;;;;;;;0.00;0.00;;;10.90;99.90;;;;;;5068383;28;19909;-92
2023/12/26 02:34:54;;;;;;;0.00;0.00;;;;;;;;;;5070690;28;20390;-91
2023/12/26 02:37:20;;;;;;;0.00;0.00;;;;;;;;;;5070038;28;20111;-91
2023/12/26 02:39:46;;;;;;;0.00;0.00;;;;;;;;;;5068443;28;20036;-91
2023/12/26 02:42:12;;;;;;;0.00;0.00;;;;;;;;;;5068486;28;20505;-91
2023/12/26 02:44:38;;;;;;;0.00;0.00;;;;;;;;;;5067499;28;20031;-91
2023/12/26 02:47:05;;;;;;;0.00;0.00;;;;;;;;;;5069120;28;20032;-92
2023/12/26 02:49:30;;;;;;;0.00;0.00;;;;;;;;;;5068028;28;20037;-92
2023/12/26 02:51:56;;;;;;;0.00;0.00;;;;;;;;;;5069905;28;20040;-91
2023/12/26 02:54:22;;;;;;;0.00;0.00;;;;;;;;;;5067558;28;20025;-91
2023/12/26 02:56:48;;;;;;;0.00;0.00;;;;;;;;;;5070627;28;20573;-91
2023/12/26 02:59:14;;;;;;;0.00;0.00;;;;;;;;;;5075515;28;20046;-91
2023/12/26 03:01:40;;;;;;;0.00;0.00;;;;;;;;;;5069187;28;20466;-92
2023/12/26 03:04:06;;;;;;;0.00;0.00;;;;;;;;;;5072837;28;20033;-91
2023/12/26 03:06:35;;;;;;;0.00;0.00;;;;;;;;;;5073275;28;20025;-91
2023/12/26 03:09:01;;;;;;;0.00;0.00;;;;;;;;;;5072471;28;20028;-92
2023/12/26 03:11:27;;;;;;;0.00;0.00;;;;;;;;;;5069961;28;20107;-92
2023/12/26 03:13:53;;;;;;;0.00;0.00;;;;;;;;;;5075827;28;20028;-91
2023/12/26 03:16:21;;;;;;;0.00;0.00;;;;;;;;;;5079765;28;20118;-91
2023/12/26 03:18:47;;;;;;;0.00;0.00;;;;;;;;;;5077689;28;20029;-90
2023/12/26 03:21:13;;;;;;;0.00;0.00;;;;;;;;;;5072448;28;20659;-92
2023/12/26 03:23:39;;;;;;;0.00;0.00;;;;;;;;;;5086788;28;20021;-93
2023/12/26 03:26:05;;;;;;;0.00;0.00;;;;;;;;;;5090406;28;20033;-92
2023/12/26 03:28:31;;;;;;;0.00;0.00;;;;;;;;;;5081860;28;20098;-91
2023/12/26 03:30:57;;;;;;;0.00;0.00;;;;;;;;;;5066801;28;20045;-92
2023/12/26 03:33:23;;;;;;;0.10;0.10;;;;;;;;;;5068889;28;20025;-92
2023/12/26 03:35:49;;;;;;;0.00;0.00;;;;;;;;;;5070697;28;20153;-91
2023/12/26 03:38:15;;;;;;;0.00;0.00;;;;;;;;;;5065063;28;20029;-91
2023/12/26 03:40:41;;;;;;;0.00;0.00;;;;;;;;;;5064965;28;20039;-92
2023/12/26 03:43:07;;;;;;;0.05;0.05;;;;;;;;;;5066799;28;20021;-92
2023/12/26 03:45:33;;;;;;;0.00;0.00;;;;;;;;;;5072580;28;20025;-92
2023/12/26 03:47:59;;;;;;;0.00;0.00;;;;;;;;;;5069354;28;20033;-92
2023/12/26 03:50:26;;;;;;;0.00;0.00;;;;;;;;;;5071534;28;20024;-91
2023/12/26 03:52:52;;;;;;;0.00;0.00;;;;;;;;;;5073945;28;20115;-92
2023/12/26 03:55:18;;;;;;;0.00;0.00;;;;;;;;;;5068546;28;20461;-91
2023/12/26 03:57:43;;;;;;;0.00;0.00;;;;;;;;;;5071206;28;20028;-92
2023/12/26 04:00:10;;;;;;;0.00;0.00;;;;;;;;;;5067515;28;20400;-92
2023/12/26 04:02:36;;;;;;;0.00;0.00;;;;;;;;;;5071005;28;20025;-92
2023/12/26 04:05:02;;;;;;;0.00;0.00;;;;;;;;;;5062206;28;20052;-92
2023/12/26 04:07:28;;;;;;;0.00;0.00;;;;;;;;;;5065014;28;20051;-91
2023/12/26 04:09:54;;;;;;;0.00;0.00;;;;;;;;;;5069848;28;20382;-91
2023/12/26 04:12:20;;;;;;;0.00;0.00;;;;;;;;;;5069941;28;20024;-91
2023/12/26 04:14:46;;;;;;;0.00;0.00;;;;;;;;;;5067254;28;20039;-92
2023/12/26 04:17:12;;;;;;;0.00;0.00;;;;;;;;;;5068013;28;20119;-93
2023/12/26 04:19:38;;;;;;;0.00;0.00;;;;;;;;;;5068425;28;20453;-90
2023/12/26 04:22:04;;;;;;;0.00;0.00;;;;;;;;;;5068010;28;20032;-91
2023/12/26 04:24:30;;;;;;;0.00;0.00;;;;;;;;;;5069465;28;20549;-91
2023/12/26 04:26:56;;;;;;;0.00;0.00;;;;;;;;;;5070354;28;20029;-91
2023/12/26 04:29:22;;;;;;;0.08;0.08;;;;;;;;;;5070068;28;20025;-91
2023/12/26 04:31:47;;;;;;;0.10;0.10;;;9.40;99.90;;;;;;5068498;28;20618;-91
2023/12/26 04:34:13;;;;;;;0.10;0.10;;;;;;;;;;5070048;28;20029;-92
2023/12/26 04:36:39;;;;;;;0.00;0.00;;;;;;;;;;5072464;28;20032;-91
2023/12/26 04:39:05;;;;;;;0.10;0.10;;;;;;;;;;5072885;28;20032;-91
2023/12/26 04:41:32;;;;;;;0.05;0.05;;;;;;;;;;5072296;28;20054;-91
2023/12/26 04:43:58;;;;;;;0.03;0.03;;;;;;;;;;5073441;28;20039;-92
2023/12/26 04:46:24;;;;;;;0.10;0.10;;;;;;;;;;5073347;28;20028;-91
2023/12/26 04:48:50;;;;;;;0.10;0.10;;;;;;;;;;5068956;28;20062;-92
2023/12/26 04:51:19;;;;;;;0.00;0.00;;;8.90;99.90;;;;;;5072527;28;20595;-92
2023/12/26 04:53:45;;;;;;;0.00;0.00;;;;;;;;;;5073450;28;20061;-92
2023/12/26 04:56:21;;;;;;;0.00;0.00;;;9.00;99.90;;;;;;5070404;28;20109;-92
2023/12/26 04:58:48;;;;;;;0.10;0.10;;;8.90;99.90;;;;;;5068970;28;20035;-91
2023/12/26 05:01:14;;;;;;;0.00;0.00;;;;;;;;;;5073653;28;20111;-91
2023/12/26 05:03:40;;;;;;;0.10;0.10;;;;;;;;;;5067005;28;20481;-92
2023/12/26 05:06:06;;;;;;;0.10;0.10;;;;;;;;;;5071582;28;20024;-92
2023/12/26 05:08:32;;;;;;;0.00;0.00;;;;;;;;;;5074304;28;20084;-92
2023/12/26 05:10:59;;;;;;;0.00;0.00;;;;;;;;;;5071780;28;20036;-91
2023/12/26 05:13:25;;;;;;;0.00;0.00;;;;;;;;;;5074378;28;20024;-91
2023/12/26 05:15:51;;;;;;;0.00;0.00;;;;;;;;;;5073783;28;20054;-91
2023/12/26 05:18:16;;;;;;;0.00;0.00;;;;;;;;;;5071176;28;20041;-92
2023/12/26 05:20:43;;;;;;;0.00;0.00;;;;;;;;;;5073670;28;20029;-92
2023/12/26 05:23:09;;;;;;;0.00;0.00;;;;;;;;;;5069479;28;20450;-92
2023/12/26 05:25:35;;;;;;;0.00;0.00;;;;;;;;;;5074619;28;20047;-92
2023/12/26 05:28:00;;;;;;;0.05;0.05;;;;;;;;;;5073688;28;20098;-90
2023/12/26 05:30:26;;;;;;;0.10;0.10;;;;;;;;;;5077679;28;20032;-92
2023/12/26 05:32:52;;;;;;;0.00;0.00;;;;;;;;;;5067343;28;20067;-92
2023/12/26 05:35:18;;;;;;;0.00;0.00;;;;;;;;;;5072615;28;20032;-92
2023/12/26 05:37:45;;;;;;;0.10;0.10;;;;;;;;;;5073351;28;20063;-92
2023/12/26 05:40:11;;;;;;;0.00;0.00;;;;;;;;;;5071850;28;20040;-91
2023/12/26 05:42:37;;;;;;;0.10;0.10;;;;;;;;;;5070445;28;20037;-91
2023/12/26 05:45:03;;;;;;;0.10;0.10;;;8.70;99.90;;;;;;5072835;28;20630;-92
2023/12/26 05:47:29;;;;;;;0.00;0.00;;;;;;;;;;5069202;28;20418;-92
2023/12/26 05:49:58;;;;;;;0.00;0.00;;;;;;;;;;5067851;28;20028;-91
2023/12/26 05:52:24;;;;;;;0.05;0.05;;;8.60;99.90;;;;;;5065835;28;20039;-91
2023/12/26 05:54:50;;;;;;;0.08;0.08;;;;;;;;;;5068788;28;20500;-92
2023/12/26 05:57:16;;;;;;;0.00;0.00;;;;;;;;;;5071029;28;20023;-91
2023/12/26 05:59:42;;;;;;;0.10;0.10;;;;;;;;;;5069439;28;20444;-90
2023/12/26 06:02:08;;;;;;;0.10;0.10;;;;;;;;;;5068560;28;20067;-91
2023/12/26 06:04:34;;;;;;;0.00;0.00;;;;;;;;;;5071298;28;20280;-91
2023/12/26 06:07:00;;;;;;;0.10;0.10;;;;;;;;;;5072850;28;20028;-90
2023/12/26 06:09:27;;;;;;;0.10;0.10;;;;;;;;;;5069302;28;20024;-92
2023/12/26 06:11:53;;;;;;;0.10;0.10;;;;;;;;;;5068436;28;20032;-92
2023/12/26 06:14:19;;;;;;;0.10;0.10;;;8.80;99.90;;;;;;5072788;28;20095;-90
2023/12/26 06:16:45;;;;;;;0.00;0.00;;;;;;;;;;5087266;28;20064;-91
2023/12/26 06:19:11;;;;;;;0.10;0.10;;;;;;;;;;5072113;28;20031;-91
2023/12/26 06:21:37;;;;;;;0.00;0.00;;;;;;;;;;5071801;28;20024;-90
2023/12/26 06:24:03;;;;;;;0.00;0.00;;;8.90;99.90;;;;;;5071121;28;20032;-90
2023/12/26 06:26:29;;;;;;;0.03;0.03;;;;;;;;;;5071634;28;20020;-90
2023/12/26 06:28:55;;;;;;;0.00;0.00;;;;;;;;;;5069021;28;20048;-91
2023/12/26 06:31:21;;;;;;;0.10;0.10;;;;;;;;;;5070857;28;20036;-90
2023/12/26 06:33:47;;;;;;;0.10;0.10;;;;;;;;;;5074333;28;20426;-91
2023/12/26 06:36:13;;;;;;;0.10;0.10;;;;;;;;;;5068188;28;20370;-91
2023/12/26 06:38:39;;;;;;;0.03;0.03;;;;;;;;;;5073726;28;20041;-91
2023/12/26 06:41:05;;;;;;;0.03;0.03;;;;;;;;;;5071220;28;20495;-90
2023/12/26 06:43:31;;;;;;;0.10;0.10;;;;;;;;;;5072902;28;20435;-91
2023/12/26 06:45:57;;;;;;;0.10;0.10;;;;;;;;;;5071647;28;20040;-91
2023/12/26 06:48:23;;;;;;;0.00;0.00;;;;;;;;;;5070140;28;20489;-92
2023/12/26 06:50:50;;;;;;;0.10;0.10;;;;;;;;;;5073091;28;20531;-91
2023/12/26 06:53:16;;;;;;;0.10;0.10;;;;;;;;;;5075437;28;20059;-90
2023/12/26 06:55:42;;;;;;;0.10;0.10;;;;;;;;;;5076015;28;20489;-91
2023/12/26 06:58:07;;;;;;;0.00;0.00;;;8.30;99.90;;;;;;5077634;28;20123;-91
2023/12/26 07:00:33;;;;;;;0.10;0.10;;;;;;;;;;5082325;28;20040;-92
2023/12/26 07:03:00;;;;;;;0.10;0.10;;;;;;;;;;5076349;28;20049;-90
2023/12/26 07:05:25;;;;;;;0.10;0.10;;;;;;;;;;5073390;28;20028;-91
2023/12/26 07:07:52;;;;;;;0.10;0.10;;;;;;;;;;5076476;28;20071;-92
2023/12/26 07:10:18;;;;;;;0.10;0.10;;;;;;;;;;5090283;28;20096;-92
2023/12/26 07:12:44;;;;;;;0.10;0.10;;;;;;;;;;5084753;28;20115;-92
2023/12/26 07:15:10;;;;;;;0.00;0.00;;;;;;;;;;5068077;28;20078;-92
2023/12/26 07:17:36;;;;;;;0.10;0.10;;;;;;;;;;5070091;28;20115;-92
2023/12/26 07:20:02;;;;;;;0.00;0.00;;;;;;;;;;5070747;28;20060;-91
2023/12/26 07:22:28;;;;;;;0.10;0.10;;;;;;;;;;5067009;28;20056;-93
2023/12/26 07:24:53;;;;;;;0.10;0.10;;;;;;;;;;5068418;28;20025;-92
2023/12/26 07:27:19;;;;;;;0.05;0.05;;;;;;;;;;5066273;28;20029;-91
2023/12/26 07:29:46;;;;;;;0.10;0.10;;;;;;;;;;5063678;28;20056;-91
2023/12/26 07:32:11;;;;;;;0.10;0.10;;;;;;;;;;5067474;28;20036;-92
2023/12/26 07:34:40;;;;;;;0.10;0.10;;;7.70;99.90;;;;;;5069697;28;20086;-92
2023/12/26 07:37:07;;;;;;;0.10;0.10;;;;;;;;;;5071513;28;20037;-91
2023/12/26 07:39:33;;;;;;;0.10;0.10;;;;;;;;;;5070258;28;20033;-92
2023/12/26 07:42:00;;;;;;;0.00;0.00;;;;;;;;;;5074857;28;20035;-91
2023/12/26 07:44:26;;;;;;;0.10;0.10;;;7.80;99.90;;;;;;5068684;28;20497;-92
2023/12/26 07:46:52;;;;;;;0.10;0.10;;;;;;;;;;5069940;28;20028;-91
2023/12/26 07:49:18;;;;;;;0.10;0.10;;;;;;;;;;5064853;28;20044;-92
2023/12/26 07:51:45;;;;;;;0.00;0.00;;;;;;;;;;5068702;28;20068;-92
2023/12/26 07:54:11;;;;;;;0.00;0.00;;;;;;;;;;5067224;28;20033;-91
2023/12/26 07:56:38;;;;;;;0.10;0.10;;;;;;;;;;5072250;28;20051;-91
2023/12/26 07:59:04;;;;;;;0.00;0.00;;;;;;;;;;5069574;28;20054;-90
2023/12/26 08:01:31;;;;;;;0.05;0.05;;;;;;;;;;5074999;28;20017;-91
2023/12/26 08:03:57;;;;;;;0.10;0.10;;;;;;;;;;5075852;28;20474;-92
2023/12/26 08:06:26;;;;;;;0.10;0.10;;;8.00;99.90;;;;;;5070785;28;20044;-91
2023/12/26 08:08:53;;;;;;;0.00;0.00;;;;;;;;;;5070211;28;20110;-91
2023/12/26 08:11:19;;;;;;;0.10;0.10;;;8.00;99.90;;;;;;5071378;28;20029;-91
2023/12/26 08:13:45;;;;;;;0.10;0.10;;;;;;;;;;5080093;28;20040;-91
2023/12/26 08:16:11;;;;;;;0.00;0.00;;;;;;;;;;5069198;28;20511;-91
2023/12/26 08:18:37;;;;;;;0.10;0.10;;;;;;;;;;5075010;28;20042;-90
2023/12/26 08:21:03;;;;;;;0.10;0.10;;;8.20;99.90;;;;;;5072337;28;20459;-90
2023/12/26 08:23:29;;;;;;;0.00;0.00;;;;;;;;;;5071102;28;20035;-91
2023/12/26 08:25:55;;;;;;;0.00;0.00;;;;;;;;;;5070667;28;20036;-91
2023/12/26 08:28:22;;;;;;;0.10;0.10;;;;;;;;;;5064750;28;20117;-91
2023/12/26 08:30:47;;;;;;;0.10;0.10;;;;;;;;;;5064649;28;21407;-91
2023/12/26 08:33:16;;;;;;;0.10;0.10;;;8.10;99.90;;;;;;5068152;28;20572;-91
2023/12/26 08:35:42;;;;;;;0.10;0.10;;;;;;;;;;5074759;28;20035;-92
2023/12/26 08:38:08;;;;;;;0.10;0.10;;;;;;;;;;5070452;28;20029;-91
2023/12/26 08:40:34;;;;;;;0.10;0.10;;;;;;;;;;5068652;28;20025;-90
2023/12/26 08:43:00;;;;;;;0.00;0.00;;;;;;;;;;5075412;28;20024;-92
2023/12/26 08:45:26;;;;;;;0.10;0.10;;;;;;;;;;5069902;28;20032;-91
2023/12/26 08:47:53;;;;;;;0.10;0.10;;;;;;;;;;5074732;28;20032;-92
2023/12/26 08:50:20;;;;;;;0.10;0.10;;;;;;;;;;5075487;28;20059;-91
2023/12/26 08:52:46;;;;;;;0.08;0.08;;;;;;;;;;5074562;28;20036;-92
2023/12/26 08:55:12;;;;;;;0.10;0.10;;;;;;;;;;5077341;28;20032;-91
2023/12/26 08:57:40;;;;;;;0.10;0.10;;;;;;;;;;5075472;28;20028;-91
2023/12/26 09:00:06;;;;;;;0.10;0.10;;;;;;;;;;5065840;28;20024;-91
2023/12/26 09:02:32;;;;;;;0.00;0.00;;;;;;;;;;5075526;28;20043;-91
2023/12/26 09:04:59;;;;;;;0.10;0.10;;;;;;;;;;5073666;28;20022;-92
2023/12/26 09:07:25;;;;;;;0.10;0.10;;;;;;;;;;5070674;28;20028;-91
2023/12/26 09:09:51;;;;;;;0.10;0.10;;;;;;;;;;5071859;28;20036;-90
2023/12/26 09:12:17;;;;;;;0.08;0.08;;;;;;;;;;5072217;28;20036;-91
2023/12/26 09:14:43;;;;;;;0.10;0.10;;;;;;;;;;5076861;28;20029;-92
2023/12/26 09:17:09;;;;;;;0.10;0.10;;;;;;;;;;5076266;28;20039;-92
2023/12/26 09:19:34;;;;;;;0.00;0.00;;;;;;;;;;5072370;28;20071;-91
2023/12/26 09:22:00;;;;;;;0.10;0.10;;;;;;;;;;5072324;28;20033;-91
2023/12/26 09:24:26;;;;;;;0.10;0.10;;;8.50;99.90;;;;;;5075288;28;20034;-91
2023/12/26 09:26:52;;;;;;;0.10;0.10;;;8.60;99.90;;;;;;5073951;28;20074;-93
2023/12/26 09:29:17;;;;;;;0.00;0.00;;;;;;;;;;5071595;28;20032;-92
2023/12/26 09:31:44;;;;;;;0.00;0.00;;;;;;;;;;5075011;28;20032;-91
2023/12/26 09:34:10;;;;;;;0.00;0.00;;;;;;;;;;5071671;28;20028;-92
2023/12/26 09:36:36;;;;;;;0.10;0.10;;;;;;;;;;5076551;28;20101;-92
2023/12/26 09:39:02;;;;;;;0.00;0.00;;;;;;;;;;5073021;28;20501;-92
2023/12/26 09:41:28;;;;;;;0.00;0.00;;;;;;;;;;5074732;28;20181;-91
2023/12/26 09:43:54;;;;;;;0.10;0.10;;;;;;;;;;5072766;28;20021;-92
2023/12/26 09:46:20;;;;;;;0.10;0.10;;;;;;;;;;5073281;28;20052;-92
2023/12/26 09:48:46;;;;;;;0.08;0.08;;;;;;;;;;5072635;28;20090;-92
2023/12/26 09:51:20;;;;;;;0.10;0.10;;;8.70;99.90;;;;;;5071944;28;20062;-91
2023/12/26 09:53:47;;;;;;;0.00;0.00;;;;;;;;;;5076723;28;20028;-91
2023/12/26 09:56:13;;;;;;;0.00;0.00;;;;;;;;;;5074192;28;20035;-92
2023/12/26 09:58:43;;;;;;;0.10;0.10;;;8.70;99.90;;;;;;5071392;28;20035;-92
2023/12/26 10:01:11;;;;;;;0.10;0.10;;;8.80;99.90;;;;;;5070691;28;20494;-91
2023/12/26 10:03:38;;;;;;;0.00;0.00;;;8.70;99.90;;;;;;5075150;28;20025;-91
2023/12/26 10:06:04;;;;;;;0.10;0.10;;;;;;;;;;5070417;28;20038;-91
2023/12/26 10:08:30;;;;;;;0.00;0.00;;;;;;;;;;5071230;28;20033;-92
2023/12/26 10:10:56;;;;;;;0.08;0.08;;;;;;;;;;5073155;28;20032;-91
2023/12/26 10:13:21;;;;;;;0.00;0.00;;;8.50;99.90;;;;;;5073540;28;20052;-92
2023/12/26 10:15:47;;;;;;;0.10;0.10;;;;;;;;;;5075179;28;20108;-91
2023/12/26 10:18:14;;;;;;;0.00;0.00;;;;;;;;;;5073806;28;20028;-91
2023/12/26 10:20:40;;;;;;;0.10;0.10;;;;;;;;;;5075262;28;20481;-91
2023/12/26 10:23:06;;;;;;;0.10;0.10;;;;;;;;;;5076812;28;20038;-91
2023/12/26 10:25:32;;;;;;;0.10;0.10;;;;;;;;;;5073413;28;20550;-92
2023/12/26 10:27:59;;;;;;;0.00;0.00;;;;;;;;;;5076949;28;20041;-92
2023/12/26 10:30:25;;;;;;;0.00;0.00;;;;;;;;;;5077146;28;20040;-92
2023/12/26 10:33:01;;;;;;;0.10;0.10;;;8.70;99.90;;;;;;5074629;28;20037;-91
2023/12/26 10:35:27;;;;;;;0.10;0.10;;;;;;;;;;5074776;28;20094;-91
2023/12/26 10:37:54;;;;;;;0.00;0.00;;;;;;;;;;5073065;28;20028;-91
2023/12/26 10:40:20;;;;;;;0.10;0.10;;;;;;;;;;5074961;28;20028;-93
2023/12/26 10:42:48;;;;;;;0.10;0.10;;;8.70;99.90;;;;;;5074002;28;20128;-92
2023/12/26 10:45:15;;;;;;;0.10;0.10;;;;;;;;;;5077700;28;20028;-91
2023/12/26 10:47:44;;;;;;;0.10;0.10;;;8.80;99.90;;;;;;5074379;28;20032;-91
2023/12/26 10:50:11;;;;;;;0.10;0.10;;;;;;;;;;5075695;28;20036;-90
2023/12/26 10:52:41;;;;;;;0.10;0.10;;;8.80;99.90;;;;;;5078902;28;20028;-91
2023/12/26 10:55:08;;;;;;;0.10;0.10;;;8.80;99.90;;;;;;5077697;28;20029;-91
2023/12/26 10:57:35;;;;;;;0.08;0.08;;;8.90;99.90;;;;;;5073695;28;20048;-92
2023/12/26 11:00:01;;;;;;;0.08;0.08;;;;;;;;;;5076451;28;20028;-91
2023/12/26 11:02:27;;;;;;;0.10;0.10;;;;;;;;;;5075603;28;20067;-92
2023/12/26 11:04:53;;;;;;;0.00;0.00;;;;;;;;;;5076838;28;20028;-92
2023/12/26 11:07:35;;;;;;;0.10;0.10;;;;;;;;;;5152517;27;20389;-88
2023/12/26 11:10:01;;;;;;;0.10;0.10;;;;;;;;;;5134342;27;20016;-90
2023/12/26 11:12:27;;;;;;;0.08;0.08;;;;;;;;;;5137234;27;20040;-90
2023/12/26 11:14:54;;;;;;;0.00;0.00;;;;;;;;;;5116056;28;20023;-91
2023/12/26 11:17:20;;;;;;;0.00;0.00;;;;;;;;;;5124144;28;20015;-90
